Photometre #528[NE_1.6] Finokalia-FKL AOT

File : 20190924_528.hum

24/09/2019,04:50:43,TEMP=22.3,BA=5.40,STAT.A=23.0,ExtBa=13.03
24/09/2019,04:53:53,TEMP=22.6,BA=5.40,STAT.A=22.5,ExtBa=12.91
24/09/2019,04:57:11,TEMP=22.8,BA=5.40,STAT.h
24/09/2019,04:57:12,TEMP=22.8,BA=5.40,STAT.h
24/09/2019,05:00:01,TEMP=22.8,BA=5.40,STAT.h
24/09/2019,05:01:33,TEMP=22.8,BA=5.40,STAT.h
24/09/2019,05:01:34,TEMP=22.8,BA=5.40,STAT.h
24/09/2019,05:05:01,TEMP=22.8,BA=5.40,STAT.h
24/09/2019,05:06:48,TEMP=22.8,BA=5.40,STAT.h
24/09/2019,05:06:49,TEMP=22.8,BA=5.40,STAT.h
24/09/2019,05:10:05,TEMP=22.8,BA=5.40,STAT.h
24/09/2019,05:13:16,TEMP=22.8,BA=5.40,STAT.h
24/09/2019,05:13:17,TEMP=22.8,BA=5.40,STAT.h
24/09/2019,05:15:01,TEMP=22.8,BA=5.40,STAT.h
24/09/2019,05:20:01,TEMP=22.8,BA=5.40,STAT.h
24/09/2019,05:21:25,TEMP=22.8,BA=5.44,STAT.h
24/09/2019,05:21:31,TEMP=22.8,BA=5.44,STAT.h
24/09/2019,05:25:19,TEMP=22.8,BA=5.44,STAT.h
24/09/2019,05:25:20,TEMP=22.8,BA=5.44,STAT.h
24/09/2019,05:29:40,TEMP=22.8,BA=5.44,STAT.h
24/09/2019,05:29:46,TEMP=22.8,BA=5.44,STAT.h
24/09/2019,05:34:35,TEMP=22.8,BA=5.48,STAT.h
24/09/2019,05:34:41,TEMP=22.8,BA=5.48,STAT.h
24/09/2019,05:40:09,TEMP=22.8,BA=5.52,STAT.h
24/09/2019,05:40:10,TEMP=22.8,BA=5.52,STAT.h
24/09/2019,05:45:01,TEMP=22.8,BA=5.52,STAT.h
24/09/2019,05:46:31,TEMP=22.8,BA=5.52,STAT.h
24/09/2019,05:46:32,TEMP=22.8,BA=5.52,STAT.h
24/09/2019,05:50:01,TEMP=22.8,BA=5.52,STAT.h
24/09/2019,05:54:17,TEMP=26.8,BA=5.52,STAT.A=23.0,ExtBa=13.20
24/09/2019,06:00:22,TEMP=27.3,BA=5.52,STAT.D=23.0,ExtBa=13.20
24/09/2019,06:02:57,TEMP=27.8,BA=5.52,STAT.A=23.0,ExtBa=13.11
24/09/2019,06:10:22,TEMP=28.1,BA=5.52,STAT.D=23.0,ExtBa=13.25
24/09/2019,06:13:18,TEMP=28.5,BA=5.52,STAT.A=23.0,ExtBa=13.22
24/09/2019,06:20:22,TEMP=28.7,BA=5.52,STAT.D=23.5,ExtBa=13.34
24/09/2019,06:25:22,TEMP=29.1,BA=5.52,STAT.D=23.5,ExtBa=13.40
24/09/2019,06:27:16,TEMP=29.6,BA=5.52,STAT.A=23.0,ExtBa=13.33
24/09/2019,06:30:22,TEMP=29.7,BA=5.48,STAT.D=23.0,ExtBa=13.35
24/09/2019,06:35:22,TEMP=29.7,BA=5.48,STAT.D=23.0,ExtBa=13.47
24/09/2019,06:40:22,TEMP=29.5,BA=5.52,STAT.D=23.5,ExtBa=13.55
24/09/2019,06:42:17,TEMP=30.0,BA=5.52,STAT.B=23.0,ExtBa=13.49
24/09/2019,06:55:04,TEMP=30.2,BA=5.44,STAT.D=23.5,ExtBa=13.30
24/09/2019,07:10:01,TEMP=30.6,BA=5.52,STAT.b=23.5
24/09/2019,07:15:14,TEMP=30.6,BA=5.48,STAT.b=23.5
24/09/2019,07:20:21,TEMP=31.2,BA=5.52,STAT.D=23.5,ExtBa=13.89
24/09/2019,07:25:04,TEMP=31.4,BA=5.52,STAT.D=23.5,ExtBa=13.92
24/09/2019,07:30:22,TEMP=31.7,BA=5.52,STAT.D=23.5,ExtBa=14.00
24/09/2019,07:35:22,TEMP=31.8,BA=5.52,STAT.D=23.5,ExtBa=14.06
24/09/2019,07:40:04,TEMP=31.5,BA=5.44,STAT.D=23.5,ExtBa=14.10
24/09/2019,07:45:29,TEMP=31.2,BA=5.44,STAT.D=23.5,ExtBa=14.13
24/09/2019,07:50:22,TEMP=31.1,BA=5.48,STAT.D=23.5,ExtBa=14.19
24/09/2019,07:55:04,TEMP=31.4,BA=5.48,STAT.D=23.5,ExtBa=14.21
24/09/2019,08:00:22,TEMP=31.8,BA=5.48,STAT.D=23.5,ExtBa=14.23
24/09/2019,08:05:22,TEMP=32.0,BA=5.48,STAT.D=23.5,ExtBa=14.23
24/09/2019,08:10:06,TEMP=32.0,BA=5.44,STAT.F,ExtBa=14.23
24/09/2019,08:25:28,TEMP=32.6,BA=5.40,STAT.D=23.5,ExtBa=13.46
24/09/2019,08:30:23,TEMP=32.8,BA=5.44,STAT.D=23.5,ExtBa=14.00
24/09/2019,08:35:23,TEMP=32.8,BA=5.44,STAT.D=23.5,ExtBa=14.20
24/09/2019,08:40:05,TEMP=32.6,BA=5.44,STAT.D=23.5,ExtBa=14.24
24/09/2019,08:45:23,TEMP=32.4,BA=5.44,STAT.D=24.0,ExtBa=14.24
24/09/2019,08:50:23,TEMP=32.4,BA=5.48,STAT.D=24.0,ExtBa=14.22
24/09/2019,08:55:05,TEMP=32.6,BA=5.48,STAT.D=23.5,ExtBa=14.22
24/09/2019,09:00:23,TEMP=32.8,BA=5.44,STAT.D=23.5,ExtBa=14.21
24/09/2019,09:05:23,TEMP=33.0,BA=5.44,STAT.D=23.5,ExtBa=14.19
24/09/2019,09:10:06,TEMP=33.4,BA=5.40,STAT.F,ExtBa=14.21
24/09/2019,09:20:23,TEMP=33.2,BA=5.44,STAT.D=24.0,ExtBa=14.25
24/09/2019,09:25:05,TEMP=33.1,BA=5.44,STAT.D=24.0,ExtBa=14.22
24/09/2019,09:30:23,TEMP=32.7,BA=5.44,STAT.D=24.0,ExtBa=14.24
24/09/2019,09:35:23,TEMP=32.4,BA=5.44,STAT.D=24.0,ExtBa=14.24
24/09/2019,09:40:05,TEMP=32.4,BA=5.40,STAT.D=24.0,ExtBa=14.23
24/09/2019,09:45:23,TEMP=32.4,BA=5.40,STAT.D=24.0,ExtBa=14.24
24/09/2019,09:50:23,TEMP=32.4,BA=5.44,STAT.D=24.0,ExtBa=14.22
24/09/2019,09:55:05,TEMP=32.9,BA=5.44,STAT.D=23.5,ExtBa=14.20
24/09/2019,10:00:23,TEMP=33.3,BA=5.44,STAT.D=23.5,ExtBa=14.21
24/09/2019,10:05:23,TEMP=33.4,BA=5.44,STAT.D=23.5,ExtBa=14.23
24/09/2019,10:10:07,TEMP=33.4,BA=5.40,STAT.F,ExtBa=14.24
24/09/2019,10:20:23,TEMP=33.1,BA=5.44,STAT.D=24.0,ExtBa=14.18
24/09/2019,10:25:05,TEMP=32.9,BA=5.44,STAT.D=24.0,ExtBa=14.25
24/09/2019,10:30:23,TEMP=33.1,BA=5.44,STAT.D=23.5,ExtBa=14.22
24/09/2019,10:35:23,TEMP=33.0,BA=5.44,STAT.D=23.5,ExtBa=14.23
24/09/2019,10:40:05,TEMP=33.1,BA=5.40,STAT.D=23.5,ExtBa=14.22
24/09/2019,10:45:23,TEMP=32.7,BA=5.40,STAT.D=23.5,ExtBa=14.25
24/09/2019,10:50:23,TEMP=32.2,BA=5.44,STAT.D=23.5,ExtBa=14.28
24/09/2019,10:55:05,TEMP=31.8,BA=5.44,STAT.D=24.0,ExtBa=14.26
24/09/2019,11:00:23,TEMP=31.9,BA=5.44,STAT.D=23.5,ExtBa=14.25
24/09/2019,11:05:23,TEMP=32.1,BA=5.44,STAT.D=23.5,ExtBa=14.24
24/09/2019,11:10:06,TEMP=32.2,BA=5.40,STAT.F,ExtBa=14.23
24/09/2019,11:20:23,TEMP=32.2,BA=5.44,STAT.D=23.5,ExtBa=14.27
24/09/2019,11:25:05,TEMP=32.5,BA=5.44,STAT.D=23.5,ExtBa=14.22
24/09/2019,11:30:23,TEMP=33.1,BA=5.44,STAT.D=23.5,ExtBa=14.20
24/09/2019,11:35:23,TEMP=33.3,BA=5.44,STAT.D=23.5,ExtBa=14.20
24/09/2019,11:40:05,TEMP=33.4,BA=5.40,STAT.D=23.5,ExtBa=14.18
24/09/2019,11:45:23,TEMP=33.4,BA=5.40,STAT.D=23.5,ExtBa=14.21
24/09/2019,11:50:23,TEMP=33.1,BA=5.44,STAT.D=23.5,ExtBa=14.21
24/09/2019,11:55:07,TEMP=33.0,BA=5.44,STAT.D=23.5,ExtBa=14.19
24/09/2019,11:56:37,TEMP=33.2,BA=5.44,STAT.b=23.5
24/09/2019,12:00:22,TEMP=32.8,BA=5.44,STAT.D=23.5,ExtBa=14.21
24/09/2019,12:05:23,TEMP=32.8,BA=5.44,STAT.D=23.5,ExtBa=14.20
24/09/2019,12:10:06,TEMP=32.8,BA=5.40,STAT.F,ExtBa=14.21
24/09/2019,12:25:04,TEMP=31.8,BA=5.40,STAT.D=23.5,ExtBa=13.79
24/09/2019,12:30:22,TEMP=31.6,BA=5.44,STAT.D=23.5,ExtBa=14.24
24/09/2019,12:35:22,TEMP=31.5,BA=5.44,STAT.D=23.5,ExtBa=14.22
24/09/2019,12:40:04,TEMP=31.6,BA=5.40,STAT.D=23.5,ExtBa=14.19
24/09/2019,12:45:22,TEMP=31.6,BA=5.40,STAT.D=23.5,ExtBa=14.18
24/09/2019,12:50:22,TEMP=31.4,BA=5.44,STAT.D=23.5,ExtBa=14.17
24/09/2019,12:55:04,TEMP=31.5,BA=5.44,STAT.D=23.5,ExtBa=14.15
24/09/2019,13:00:22,TEMP=31.7,BA=5.44,STAT.D=23.5,ExtBa=14.13
24/09/2019,13:05:22,TEMP=31.9,BA=5.44,STAT.D=23.5,ExtBa=14.13
24/09/2019,13:10:06,TEMP=31.9,BA=5.40,STAT.F,ExtBa=14.13
24/09/2019,13:25:04,TEMP=31.2,BA=5.36,STAT.D=23.5,ExtBa=13.32
24/09/2019,13:30:22,TEMP=31.0,BA=5.44,STAT.D=23.5,ExtBa=13.85
24/09/2019,13:35:22,TEMP=30.9,BA=5.44,STAT.D=23.5,ExtBa=13.90
24/09/2019,13:38:30,TEMP=30.9,BA=5.44,STAT.B=23.5,ExtBa=13.96
24/09/2019,13:50:22,TEMP=29.4,BA=5.40,STAT.D=23.5,ExtBa=13.27
24/09/2019,13:54:16,TEMP=29.4,BA=5.40,STAT.A=23.5,ExtBa=13.58
24/09/2019,14:08:11,TEMP=29.5,BA=5.40,STAT.A=23.5,ExtBa=14.03
24/09/2019,14:10:22,TEMP=29.8,BA=5.40,STAT.D=23.0,ExtBa=13.95
24/09/2019,14:15:21,TEMP=29.5,BA=5.40,STAT.D=23.5,ExtBa=13.99
24/09/2019,14:17:15,TEMP=29.8,BA=5.40,STAT.A=23.0,ExtBa=13.70
24/09/2019,14:17:50,TEMP=29.8,BA=5.40,STAT.h
24/09/2019,14:18:02,TEMP=29.8,BA=5.40,STAT.h
24/09/2019,14:25:53,TEMP=28.9,BA=5.40,STAT.A=23.5,ExtBa=13.99
24/09/2019,14:30:21,TEMP=29.0,BA=5.44,STAT.D=23.5,ExtBa=13.94
24/09/2019,14:33:17,TEMP=29.1,BA=5.44,STAT.C=23.0,ExtBa=13.88
24/09/2019,14:47:53,TEMP=28.9,BA=5.36,STAT.A=23.5,ExtBa=13.01
24/09/2019,14:49:54,TEMP=29.2,BA=5.36,STAT.A=23.0,ExtBa=13.02
24/09/2019,14:51:57,TEMP=29.2,BA=5.36,STAT.A=23.0,ExtBa=13.00
24/09/2019,14:54:29,TEMP=29.1,BA=5.36,STAT.A=23.0,ExtBa=12.98
24/09/2019,14:58:23,TEMP=28.9,BA=5.36,STAT.B=23.5,ExtBa=12.99
24/09/2019,15:07:18,TEMP=28.6,BA=5.36,STAT.h
24/09/2019,15:07:19,TEMP=28.6,BA=5.36,STAT.h
24/09/2019,15:10:21,TEMP=28.1,BA=5.40,STAT.D=23.5,ExtBa=12.97
24/09/2019,15:12:38,TEMP=28.3,BA=5.40,STAT.h
24/09/2019,15:12:39,TEMP=28.3,BA=5.40,STAT.h
24/09/2019,15:15:01,TEMP=28.3,BA=5.40,STAT.h
24/09/2019,15:17:53,TEMP=28.3,BA=5.40,STAT.h
24/09/2019,15:17:54,TEMP=28.3,BA=5.40,STAT.h
24/09/2019,15:20:01,TEMP=28.3,BA=5.40,STAT.h
24/09/2019,15:22:15,TEMP=28.3,BA=5.40,STAT.h
24/09/2019,15:22:21,TEMP=28.3,BA=5.40,STAT.h
24/09/2019,15:25:55,TEMP=28.3,BA=5.40,STAT.h
24/09/2019,15:26:01,TEMP=28.3,BA=5.40,STAT.h
24/09/2019,15:29:04,TEMP=28.3,BA=5.40,STAT.h
24/09/2019,15:29:05,TEMP=28.3,BA=5.40,STAT.h